Time;durP1;ratioP1;P1;durP2;ratioP2;P2;SDS_P1;SDS_P2;PMS_P1;PMS_P2;Temp;Humidity;BMP_temperature;BMP_pressure;BME280_temperature;BME280_humidity;BME280_pressure;Samples;Min_cycle;Max_cycle;Signal;HPM_P1;HPM_P2
2021/06/01 00:01:20;;;;;;;7.22;5.90;;;12.40;70.60;;;;;;5074804;28;20021;-74
2021/06/01 00:03:46;;;;;;;7.00;5.97;;;12.40;70.60;;;;;;5074812;28;20477;-74
2021/06/01 00:06:12;;;;;;;8.85;5.72;;;12.40;70.80;;;;;;5074452;28;20033;-74
2021/06/01 00:08:38;;;;;;;9.98;5.38;;;12.40;70.90;;;;;;5074753;28;20055;-74
2021/06/01 00:11:05;;;;;;;7.28;5.80;;;12.30;70.80;;;;;;5074327;28;20501;-74
2021/06/01 00:13:30;;;;;;;11.68;6.55;;;12.40;70.80;;;;;;5074256;28;20024;-73
2021/06/01 00:15:56;;;;;;;10.48;5.95;;;12.30;70.90;;;;;;5073050;28;20037;-73
2021/06/01 00:18:22;;;;;;;6.75;5.97;;;12.40;71.10;;;;;;5074525;28;20451;-73
2021/06/01 00:20:48;;;;;;;12.77;6.32;;;12.30;71.20;;;;;;5074377;28;20024;-73
2021/06/01 00:23:14;;;;;;;8.13;6.05;;;12.30;71.20;;;;;;5074390;28;20031;-72
2021/06/01 00:25:39;;;;;;;12.70;6.50;;;12.40;71.40;;;;;;5073793;28;20103;-74
2021/06/01 00:28:05;;;;;;;10.80;6.65;;;12.40;71.40;;;;;;5074345;28;20028;-75
2021/06/01 00:30:31;;;;;;;8.18;6.20;;;12.40;71.40;;;;;;5074273;28;20025;-73
2021/06/01 00:32:57;;;;;;;9.02;5.93;;;12.40;71.40;;;;;;5074306;28;20028;-73
2021/06/01 00:35:22;;;;;;;9.68;6.70;;;12.40;71.40;;;;;;5055903;28;20484;-73
2021/06/01 00:37:48;;;;;;;11.05;6.28;;;12.50;71.50;;;;;;5073770;28;20033;-73
2021/06/01 00:40:14;;;;;;;7.63;6.30;;;12.50;71.50;;;;;;5074203;28;20035;-75
2021/06/01 00:42:39;;;;;;;6.63;5.95;;;12.50;71.40;;;;;;5073114;28;20024;-73
2021/06/01 00:45:06;;;;;;;7.97;6.15;;;12.50;71.40;;;;;;5073704;28;20025;-82
2021/06/01 00:47:33;;;;;;;10.27;6.65;;;12.60;71.40;;;;;;5073993;28;20430;-74
2021/06/01 00:49:58;;;;;;;6.75;5.97;;;12.60;71.20;;;;;;5073906;28;20033;-73
2021/06/01 00:52:24;;;;;;;8.27;5.90;;;12.60;71.00;;;;;;5073441;28;20029;-73
2021/06/01 00:54:50;;;;;;;7.68;6.40;;;12.70;71.00;;;;;;5073562;28;20450;-73
2021/06/01 00:57:16;;;;;;;7.25;6.38;;;12.70;70.90;;;;;;5073448;28;20028;-73
2021/06/01 00:59:41;;;;;;;7.07;6.03;;;12.70;70.80;;;;;;5090007;28;20442;-73
2021/06/01 01:02:07;;;;;;;9.35;5.85;;;12.70;70.80;;;;;;5073428;28;20020;-74
2021/06/01 01:04:33;;;;;;;8.02;6.10;;;12.70;70.80;;;;;;5073591;28;20039;-74
2021/06/01 01:07:18;;;;;;;10.35;6.53;;;12.70;70.90;;;;;;5073647;28;20031;-73
2021/06/01 01:09:45;;;;;;;8.47;5.90;;;12.70;70.90;;;;;;5073802;28;20028;-74
2021/06/01 01:12:21;;;;;;;8.43;6.35;;;12.80;70.90;;;;;;5073536;28;20246;-74
2021/06/01 01:14:54;;;;;;;8.45;5.90;;;12.80;70.70;;;;;;5088957;28;20059;-74
2021/06/01 01:17:25;;;;;;;11.98;5.72;;;12.80;70.70;;;;;;5073560;28;20036;-74
2021/06/01 01:20:09;;;;;;;8.35;5.78;;;12.80;70.60;;;;;;5073764;28;20351;-73
2021/06/01 01:22:39;;;;;;;17.88;5.82;;;12.80;70.70;;;;;;5073671;28;20077;-73
2021/06/01 01:25:34;;;;;;;8.65;6.60;;;12.80;70.70;;;;;;5072783;28;20497;-74
2021/06/01 01:28:18;;;;;;;;;;;12.80;70.80;;;;;;5072658;28;20025;-74
2021/06/01 01:30:48;;;;;;;6.88;5.82;;;12.80;70.60;;;;;;5073372;28;19915;-74
2021/06/01 01:33:16;;;;;;;7.85;6.05;;;12.80;70.50;;;;;;5073391;28;20047;-74
2021/06/01 01:35:44;;;;;;;8.15;6.15;;;12.80;70.70;;;;;;5073459;28;20036;-74
2021/06/01 01:38:11;;;;;;;7.25;6.10;;;12.80;70.90;;;;;;5073627;28;20032;-74
2021/06/01 01:40:38;;;;;;;8.13;5.70;;;12.80;70.90;;;;;;5071939;28;20059;-74
2021/06/01 01:43:09;;;;;;;7.75;5.88;;;12.80;70.90;;;;;;5073319;28;20032;-74
2021/06/01 01:45:37;;;;;;;8.20;5.45;;;12.80;70.90;;;;;;5069547;28;20032;-73
2021/06/01 01:51:19;;;;;;;7.32;5.22;;;12.80;71.00;;;;;;5093235;28;20063;-74
2021/06/01 01:53:54;;;;;;;8.88;5.65;;;12.90;70.90;;;;;;5093488;28;20460;-74
2021/06/01 01:56:22;;;;;;;6.38;5.60;;;12.90;70.90;;;;;;5093041;28;20028;-73
2021/06/01 01:58:50;;;;;;;9.48;5.82;;;12.90;71.00;;;;;;5093619;28;20111;-73
2021/06/01 02:01:17;;;;;;;10.80;5.45;;;12.90;71.10;;;;;;5093298;28;20032;-74
2021/06/01 02:03:43;;;;;;;9.00;5.45;;;12.90;71.10;;;;;;5094690;28;20065;-73
2021/06/01 02:06:10;;;;;;;16.92;6.28;;;12.90;71.10;;;;;;5097513;28;20020;-74
2021/06/01 02:08:41;;;;;;;9.13;5.22;;;12.90;71.10;;;;;;5097347;28;20059;-73
2021/06/01 02:11:07;;;;;;;8.45;5.97;;;12.90;71.10;;;;;;5096988;28;20038;-74
2021/06/01 02:13:44;;;;;;;6.95;5.95;;;12.80;71.10;;;;;;5097191;28;20032;-74
2021/06/01 02:16:10;;;;;;;9.15;5.68;;;12.80;71.20;;;;;;5097197;28;20025;-74
2021/06/01 02:18:36;;;;;;;6.40;5.60;;;12.80;71.30;;;;;;5097107;28;20020;-74
2021/06/01 02:21:05;;;;;;;7.07;5.78;;;12.80;71.30;;;;;;5097136;28;20028;-74
2021/06/01 02:23:48;;;;;;;7.53;6.07;;;12.80;71.40;;;;;;5112889;28;20474;-74
2021/06/01 02:26:29;;;;;;;6.30;5.43;;;12.80;71.40;;;;;;5096851;28;20046;-75
2021/06/01 02:29:00;;;;;;;7.40;5.75;;;12.80;71.40;;;;;;5096617;28;20461;-74
2021/06/01 02:31:38;;;;;;;9.18;5.88;;;12.80;71.40;;;;;;5096745;28;20020;-74
2021/06/01 02:34:05;;;;;;;8.52;5.57;;;12.80;71.30;;;;;;5096928;28;20031;-74
2021/06/01 02:36:34;;;;;;;8.93;5.78;;;12.80;71.30;;;;;;5096592;28;20158;-74
2021/06/01 02:39:01;;;;;;;7.25;5.40;;;12.80;71.30;;;;;;5096627;28;20032;-74
2021/06/01 02:41:26;;;;;;;11.10;5.57;;;12.80;71.40;;;;;;5096356;28;20035;-73
2021/06/01 02:43:52;;;;;;;5.88;5.28;;;12.80;71.50;;;;;;5096124;28;20028;-75
2021/06/01 02:46:19;;;;;;;6.72;5.18;;;12.80;71.60;;;;;;5096784;28;20390;-73
2021/06/01 02:48:45;;;;;;;9.88;5.50;;;12.80;71.60;;;;;;5097184;28;20028;-74
2021/06/01 02:51:16;;;;;;;7.30;5.78;;;12.90;71.80;;;;;;5096650;28;20028;-74
2021/06/01 02:53:50;;;;;;;7.03;5.38;;;12.90;71.80;;;;;;5096408;28;20108;-74
2021/06/01 02:56:17;;;;;;;8.48;5.95;;;12.90;71.70;;;;;;5096523;28;20031;-74
2021/06/01 02:58:43;;;;;;;7.18;5.50;;;13.00;71.70;;;;;;5096165;28;20032;-74
2021/06/01 03:01:14;;;;;;;6.72;5.32;;;13.00;71.70;;;;;;5096289;28;20028;-73
2021/06/01 03:03:47;;;;;;;7.45;5.45;;;13.00;71.70;;;;;;5096272;28;20034;-74
2021/06/01 03:06:15;;;;;;;7.82;5.20;;;13.00;71.60;;;;;;5096373;28;20032;-73
2021/06/01 03:08:41;;;;;;;7.03;5.22;;;13.00;71.50;;;;;;5096350;28;20441;-74
2021/06/01 03:11:08;;;;;;;6.00;5.40;;;13.10;71.70;;;;;;5096113;28;20059;-74
2021/06/01 03:13:33;;;;;;;8.45;5.53;;;13.10;71.60;;;;;;5096071;28;20378;-74
2021/06/01 03:15:59;;;;;;;5.85;5.25;;;13.10;71.50;;;;;;5095802;28;20032;-73
2021/06/01 03:18:25;;;;;;;6.32;5.30;;;13.20;71.40;;;;;;5095668;28;20051;-75
2021/06/01 03:20:51;;;;;;;8.55;5.53;;;13.20;71.30;;;;;;5096097;28;20024;-74
2021/06/01 03:23:18;;;;;;;10.90;5.10;;;13.20;71.10;;;;;;5095913;28;20054;-74
2021/06/01 03:25:44;;;;;;;8.48;4.88;;;13.20;71.00;;;;;;5095710;28;20024;-74
2021/06/01 03:28:10;;;;;;;7.13;5.10;;;13.20;70.80;;;;;;5096191;28;20028;-73
2021/06/01 03:30:37;;;;;;;7.75;4.55;;;13.20;70.60;;;;;;5095783;28;20032;-74
2021/06/01 03:33:03;;;;;;;8.65;5.00;;;13.20;70.60;;;;;;5095804;28;20058;-74
2021/06/01 03:35:29;;;;;;;6.82;4.93;;;13.30;70.60;;;;;;5095248;28;20079;-74
2021/06/01 03:37:56;;;;;;;7.53;4.93;;;13.30;70.50;;;;;;5095228;28;20051;-74
2021/06/01 03:40:23;;;;;;;6.38;5.10;;;13.30;70.40;;;;;;5095402;28;20099;-74
2021/06/01 03:42:49;;;;;;;6.53;4.80;;;13.40;70.50;;;;;;5095707;28;20454;-74
2021/06/01 03:45:15;;;;;;;7.35;4.43;;;13.40;70.50;;;;;;5095456;28;20059;-74
2021/06/01 03:47:41;;;;;;;7.80;5.00;;;13.40;70.30;;;;;;5095146;28;20024;-74
2021/06/01 03:50:08;;;;;;;11.82;4.88;;;13.50;70.00;;;;;;5095050;28;20024;-75
2021/06/01 03:52:34;;;;;;;6.25;5.20;;;13.50;69.90;;;;;;5095499;28;20054;-74
2021/06/01 03:55:00;;;;;;;6.55;4.65;;;13.50;69.80;;;;;;5094895;28;20477;-74
2021/06/01 03:57:26;;;;;;;4.82;4.28;;;13.60;69.80;;;;;;5095006;28;20036;-74
2021/06/01 03:59:51;;;;;;;6.25;4.85;;;13.70;69.60;;;;;;5095049;28;20028;-74
2021/06/01 04:02:17;;;;;;;7.35;4.50;;;13.70;69.50;;;;;;5095018;28;20035;-74
2021/06/01 04:04:44;;;;;;;10.80;5.40;;;13.80;69.50;;;;;;5095196;28;20482;-74
2021/06/01 04:07:10;;;;;;;7.55;4.72;;;13.90;69.30;;;;;;5093685;28;20024;-73
2021/06/01 04:09:36;;;;;;;8.75;4.80;;;13.90;69.00;;;;;;5094732;28;20067;-75
2021/06/01 04:12:02;;;;;;;6.20;5.43;;;13.90;68.70;;;;;;5094848;28;20466;-73
2021/06/01 04:14:28;;;;;;;10.98;5.40;;;13.90;68.70;;;;;;5094527;28;20078;-73
2021/06/01 04:16:55;;;;;;;10.38;5.40;;;13.90;68.70;;;;;;5094737;28;20055;-75
2021/06/01 04:19:21;;;;;;;6.05;5.38;;;13.90;68.50;;;;;;5089733;28;20111;-75
2021/06/01 04:21:47;;;;;;;10.50;5.65;;;13.90;68.40;;;;;;5094763;28;20020;-74
2021/06/01 04:24:13;;;;;;;8.40;5.25;;;13.90;68.30;;;;;;5094666;28;20462;-73
2021/06/01 04:26:39;;;;;;;7.30;5.70;;;13.90;68.30;;;;;;5093217;28;20024;-74
2021/06/01 04:29:05;;;;;;;9.82;5.40;;;13.90;68.20;;;;;;5094514;28;20382;-73
2021/06/01 04:31:31;;;;;;;13.35;5.75;;;13.90;68.20;;;;;;5094716;28;20131;-74
2021/06/01 04:33:57;;;;;;;7.60;5.75;;;13.80;68.20;;;;;;5093170;28;20420;-74
2021/06/01 04:36:25;;;;;;;7.10;5.40;;;13.90;68.40;;;;;;5094370;28;20024;-74
2021/06/01 04:38:51;;;;;;;10.15;5.70;;;13.90;68.50;;;;;;5094646;28;20047;-74
2021/06/01 04:41:16;;;;;;;7.47;5.60;;;13.90;68.20;;;;;;5094149;28;20042;-74
2021/06/01 04:43:42;;;;;;;8.50;5.45;;;13.90;68.00;;;;;;5093933;28;20466;-74
2021/06/01 04:46:08;;;;;;;8.43;4.90;;;13.90;68.00;;;;;;5092914;28;20028;-74
2021/06/01 04:48:33;;;;;;;9.05;5.55;;;14.00;67.90;;;;;;5092731;28;20059;-74
2021/06/01 04:50:59;;;;;;;5.70;5.10;;;14.00;67.60;;;;;;5094107;28;20110;-74
2021/06/01 04:53:25;;;;;;;8.50;5.35;;;14.00;67.60;;;;;;5093874;28;20027;-74
2021/06/01 04:55:51;;;;;;;8.90;5.10;;;14.10;67.50;;;;;;5094052;28;20035;-74
2021/06/01 04:58:17;;;;;;;10.32;5.00;;;14.10;67.40;;;;;;5094375;28;20474;-74
2021/06/01 05:00:42;;;;;;;6.93;5.07;;;14.10;67.10;;;;;;5093549;28;20028;-73
2021/06/01 05:03:08;;;;;;;7.80;4.70;;;14.20;67.10;;;;;;5093832;28;20027;-75
2021/06/01 05:05:34;;;;;;;7.38;4.28;;;14.30;66.90;;;;;;5093912;28;20492;-74
2021/06/01 05:07:59;;;;;;;12.98;4.68;;;14.30;66.70;;;;;;5094408;28;20024;-74
2021/06/01 05:10:25;;;;;;;12.73;4.85;;;14.40;66.50;;;;;;5093817;28;20181;-74
2021/06/01 05:12:51;;;;;;;8.07;4.15;;;14.40;66.20;;;;;;5092575;28;20484;-73
2021/06/01 05:15:17;;;;;;;4.50;4.10;;;14.50;66.10;;;;;;5093291;28;20035;-74
2021/06/01 05:17:42;;;;;;;7.85;4.25;;;14.50;65.60;;;;;;5093768;28;20497;-74
2021/06/01 05:20:09;;;;;;;7.10;3.92;;;14.60;65.40;;;;;;5093703;28;20024;-74
2021/06/01 05:22:35;;;;;;;7.18;4.03;;;14.60;65.20;;;;;;5093187;28;20039;-74
2021/06/01 05:25:01;;;;;;;4.95;3.97;;;14.70;65.30;;;;;;5093647;28;20024;-74
2021/06/01 05:27:27;;;;;;;5.32;3.58;;;14.90;65.20;;;;;;5093385;28;20024;-75
2021/06/01 05:29:59;;;;;;;18.70;4.68;;;15.10;64.90;;;;;;5091897;28;20462;-74
2021/06/01 05:35:26;;;;;;;5.93;3.67;;;15.50;63.60;;;;;;5093541;28;20355;-74
2021/06/01 05:37:51;;;;;;;4.18;3.10;;;15.70;62.90;;;;;;5090380;28;20059;-74
2021/06/01 05:40:18;;;;;;;5.90;3.80;;;15.80;62.80;;;;;;5099255;28;20062;-76
2021/06/01 05:42:43;;;;;;;5.28;3.08;;;15.90;62.50;;;;;;5100466;28;20024;-74
2021/06/01 05:45:09;;;;;;;7.03;3.30;;;16.10;62.20;;;;;;5082255;28;20157;-74
2021/06/01 05:47:35;;;;;;;10.77;3.05;;;16.30;61.70;;;;;;5059658;28;20432;-75
2021/06/01 05:50:02;;;;;;;9.05;2.78;;;16.40;61.10;;;;;;5059230;28;20025;-74
2021/06/01 05:52:28;;;;;;;5.93;2.88;;;16.50;60.50;;;;;;5059696;28;20087;-75
2021/06/01 05:54:53;;;;;;;32.28;4.38;;;16.60;60.00;;;;;;5059940;28;20478;-74
2021/06/01 05:57:19;;;;;;;4.93;2.50;;;16.70;59.80;;;;;;5059600;28;20048;-74
2021/06/01 05:59:46;;;;;;;2.97;2.35;;;16.70;59.40;;;;;;5059373;28;20051;-75
2021/06/01 06:02:11;;;;;;;5.88;2.65;;;16.80;59.30;;;;;;5060097;28;20031;-75
2021/06/01 06:04:37;;;;;;;6.22;2.88;;;16.90;58.80;;;;;;5059973;28;20093;-75
2021/06/01 06:07:04;;;;;;;6.40;2.80;;;17.00;58.60;;;;;;5059805;28;20029;-75
2021/06/01 06:09:29;;;;;;;2.97;2.55;;;17.10;58.50;;;;;;5059027;28;20370;-74
2021/06/01 06:11:57;;;;;;;3.90;2.90;;;17.20;58.60;;;;;;5059632;28;20021;-75
2021/06/01 06:14:22;;;;;;;4.60;2.63;;;17.40;58.30;;;;;;5058634;28;20402;-75
2021/06/01 06:16:56;;;;;;;3.40;2.75;;;17.50;57.90;;;;;;5059609;28;20029;-74
2021/06/01 06:19:22;;;;;;;3.93;2.50;;;17.60;57.20;;;;;;5058765;28;20190;-75
2021/06/01 06:21:48;;;;;;;2.53;1.98;;;17.60;56.90;;;;;;5059668;28;20024;-75
2021/06/01 06:24:13;;;;;;;4.63;1.92;;;17.50;56.50;;;;;;5060028;28;20110;-75
2021/06/01 06:26:39;;;;;;;2.95;2.45;;;17.30;56.50;;;;;;5058221;28;20150;-75
2021/06/01 06:29:05;;;;;;;7.95;2.75;;;17.10;56.60;;;;;;5059752;28;20033;-76
2021/06/01 06:31:31;;;;;;;8.20;2.70;;;16.90;56.70;;;;;;5059217;28;20078;-75
2021/06/01 06:33:58;;;;;;;8.93;2.53;;;16.70;56.70;;;;;;5058757;28;20103;-74
2021/06/01 06:36:24;;;;;;;6.30;2.78;;;16.50;56.90;;;;;;5059415;28;20513;-74
2021/06/01 06:38:49;;;;;;;5.13;2.65;;;16.40;57.10;;;;;;5059603;28;20037;-74
2021/06/01 06:41:16;;;;;;;12.32;3.03;;;16.40;57.50;;;;;;5059264;28;20115;-74
2021/06/01 06:43:49;;;;;;;11.40;3.03;;;16.40;57.70;;;;;;5059389;28;20028;-74
2021/06/01 06:46:41;;;;;;;4.88;2.67;;;16.30;57.80;;;;;;5059285;28;20115;-75
2021/06/01 06:49:03;;;;;;;5.13;2.50;;;16.20;57.90;;;;;;5057947;28;20037;-74
2021/06/01 06:51:29;;;;;;;12.32;2.78;;;16.30;57.90;;;;;;5056113;28;20033;-75
2021/06/01 06:53:56;;;;;;;10.25;2.80;;;16.40;58.00;;;;;;5055893;28;20490;-74
2021/06/01 06:56:25;;;;;;;4.25;2.40;;;16.40;57.80;;;;;;5056101;28;20074;-75
2021/06/01 06:58:51;;;;;;;5.47;3.00;;;16.40;57.50;;;;;;5055996;28;20527;-75
2021/06/01 07:01:17;;;;;;;2.75;2.28;;;16.40;57.50;;;;;;5055472;28;20112;-75
2021/06/01 07:03:43;;;;;;;13.80;2.60;;;16.30;57.60;;;;;;5055654;28;20029;-75
2021/06/01 07:06:09;;;;;;;6.00;2.78;;;16.30;57.70;;;;;;5038206;28;20036;-75
2021/06/01 07:08:35;;;;;;;6.22;2.78;;;16.20;57.90;;;;;;5055330;28;20029;-75
2021/06/01 07:11:01;;;;;;;7.90;2.75;;;16.20;58.10;;;;;;5055444;28;20032;-75
2021/06/01 07:13:36;;;;;;;7.07;2.97;;;16.20;58.10;;;;;;5055237;28;20029;-74
2021/06/01 07:16:02;;;;;;;4.75;2.65;;;16.10;57.80;;;;;;5054372;28;20033;-74
2021/06/01 07:18:27;;;;;;;9.20;2.58;;;16.10;57.90;;;;;;5055914;28;20486;-75
2021/06/01 07:20:55;;;;;;;3.08;2.45;;;16.00;57.90;;;;;;5055253;28;20108;-75
2021/06/01 07:23:21;;;;;;;4.97;2.70;;;16.00;58.00;;;;;;5055090;28;20029;-74
2021/06/01 07:25:47;;;;;;;8.70;2.60;;;16.00;58.20;;;;;;5055232;28;20048;-73
2021/06/01 07:28:12;;;;;;;4.90;2.92;;;15.90;58.20;;;;;;5055227;28;20029;-74
2021/06/01 07:30:38;;;;;;;7.20;2.78;;;15.90;58.40;;;;;;5055285;28;20035;-74
2021/06/01 07:33:04;;;;;;;6.72;2.70;;;15.90;58.60;;;;;;5055050;28;20032;-74
2021/06/01 07:35:29;;;;;;;4.00;2.50;;;15.90;58.50;;;;;;5055208;28;20033;-74
2021/06/01 07:37:55;;;;;;;4.20;2.80;;;15.90;58.40;;;;;;5055561;28;20033;-75
2021/06/01 07:40:21;;;;;;;7.60;2.70;;;16.00;58.40;;;;;;5055209;28;20033;-74
2021/06/01 07:42:47;;;;;;;5.10;2.58;;;16.10;58.30;;;;;;5055173;28;20056;-75
2021/06/01 07:45:14;;;;;;;5.18;2.67;;;16.10;58.10;;;;;;5055076;28;20356;-75
2021/06/01 07:47:39;;;;;;;4.53;3.03;;;16.10;58.20;;;;;;5055077;28;20021;-74
2021/06/01 07:50:06;;;;;;;6.47;2.50;;;16.10;58.30;;;;;;5054974;28;20021;-74
2021/06/01 07:52:32;;;;;;;8.23;2.53;;;16.10;58.20;;;;;;5054838;28;20112;-81
2021/06/01 07:54:58;;;;;;;6.40;2.60;;;16.10;58.10;;;;;;5055409;28;20021;-75
2021/06/01 07:57:24;;;;;;;5.85;2.80;;;16.10;58.00;;;;;;5054552;28;20562;-75
2021/06/01 07:59:49;;;;;;;5.47;2.90;;;16.10;58.00;;;;;;5054400;28;20032;-74
2021/06/01 08:02:15;;;;;;;4.10;2.58;;;16.20;58.00;;;;;;5053316;28;20172;-74
2021/06/01 08:04:41;;;;;;;3.83;2.70;;;16.30;57.70;;;;;;5054410;28;20021;-74
2021/06/01 08:07:08;;;;;;;11.45;3.50;;;16.30;57.30;;;;;;5054877;28;20033;-73
2021/06/01 08:09:34;;;;;;;4.65;3.03;;;16.30;57.20;;;;;;5053459;28;20390;-73
2021/06/01 08:12:00;;;;;;;6.05;3.28;;;16.30;57.20;;;;;;5054686;28;20032;-73
2021/06/01 08:14:25;;;;;;;5.18;3.03;;;16.20;57.90;;;;;;5054939;28;20021;-74
2021/06/01 08:16:51;;;;;;;3.70;2.70;;;16.20;57.40;;;;;;5054686;28;20166;-74
2021/06/01 08:19:27;;;;;;;5.82;2.70;;;16.10;57.40;;;;;;5054722;28;20032;-74
2021/06/01 08:21:57;;;;;;;4.38;2.92;;;16.20;57.50;;;;;;5054776;28;20032;-73
2021/06/01 08:24:24;;;;;;;5.70;2.83;;;16.30;57.40;;;;;;5054284;28;20061;-74
2021/06/01 08:26:49;;;;;;;4.50;2.67;;;16.30;57.00;;;;;;5054114;28;20094;-74
2021/06/01 08:29:15;;;;;;;13.90;3.58;;;16.40;56.90;;;;;;5053969;28;20546;-74
2021/06/01 08:31:42;;;;;;;2.75;2.55;;;16.50;57.30;;;;;;5054430;28;20021;-74
2021/06/01 08:34:08;;;;;;;6.28;2.80;;;16.50;56.40;;;;;;5054046;28;20028;-74
2021/06/01 08:36:34;;;;;;;5.22;2.78;;;16.50;56.20;;;;;;5052689;28;20033;-74
2021/06/01 08:39:00;;;;;;;6.60;2.30;;;16.50;56.20;;;;;;5054351;28;20033;-74
2021/06/01 08:41:26;;;;;;;4.57;2.90;;;16.50;56.30;;;;;;5054224;28;20082;-74
2021/06/01 08:43:52;;;;;;;4.97;2.53;;;16.60;56.40;;;;;;5053947;28;20455;-74
2021/06/01 08:46:23;;;;;;;6.63;2.60;;;16.60;56.20;;;;;;5054346;28;20463;-75
2021/06/01 08:48:51;;;;;;;4.63;3.00;;;16.60;56.00;;;;;;5054013;28;20374;-74
2021/06/01 08:51:20;;;;;;;7.43;3.13;;;16.60;55.90;;;;;;5054036;28;20032;-75
2021/06/01 08:53:47;;;;;;;6.25;2.58;;;16.60;55.90;;;;;;5053810;28;20051;-75
2021/06/01 08:56:13;;;;;;;5.00;2.90;;;16.60;55.80;;;;;;5053778;28;20037;-75
2021/06/01 08:58:42;;;;;;;4.47;2.80;;;16.60;55.60;;;;;;5053775;28;20055;-74
2021/06/01 09:01:08;;;;;;;3.63;2.83;;;16.60;55.30;;;;;;5053745;28;20100;-75
2021/06/01 09:03:35;;;;;;;7.20;2.63;;;16.60;55.40;;;;;;5054282;28;20037;-74
2021/06/01 09:06:17;;;;;;;5.43;2.55;;;16.60;55.50;;;;;;5053622;28;20037;-75
2021/06/01 09:22:09;;;;;;;7.80;2.97;;;16.80;55.30;;;;;;5053692;28;20032;-74
2021/06/01 09:24:35;;;;;;;5.90;2.95;;;16.80;55.00;;;;;;5053810;28;20025;-75
2021/06/01 09:29:28;;;;;;;7.78;4.20;;;16.90;55.00;;;;;;5054271;28;20021;-75
2021/06/01 09:32:11;;;;;;;4.55;3.08;;;16.90;55.20;;;;;;5053382;28;20029;-75
2021/06/01 09:34:42;;;;;;;6.60;3.22;;;17.00;55.30;;;;;;5052716;28;20485;-74
2021/06/01 09:37:26;;;;;;;3.60;2.97;;;17.00;55.00;;;;;;5053258;28;20029;-75
2021/06/01 09:40:24;;;;;;;5.35;3.40;;;17.10;54.70;;;;;;5053367;28;20033;-75
2021/06/01 09:42:52;;;;;;;9.85;3.90;;;17.10;54.60;;;;;;5020118;28;20110;-73
2021/06/01 09:45:23;;;;;;;6.32;2.75;;;17.20;54.60;;;;;;5053347;28;20041;-76
2021/06/01 09:47:50;;;;;;;8.15;3.70;;;17.20;54.40;;;;;;5053653;28;20029;-75
2021/06/01 09:53:34;;;;;;;7.10;3.28;;;17.50;54.00;;;;;;5053489;28;20061;-75
2021/06/01 09:56:01;;;;;;;7.70;3.30;;;17.60;53.60;;;;;;5053730;28;20343;-74
2021/06/01 09:58:35;;;;;;;8.32;3.47;;;17.60;53.50;;;;;;5053483;28;20029;-73
2021/06/01 10:01:03;;;;;;;8.27;3.10;;;17.80;53.20;;;;;;5052864;28;20031;-75
2021/06/01 10:03:44;;;;;;;30.33;4.22;;;18.00;52.90;;;;;;5053268;28;20056;-74
2021/06/01 10:06:09;;;;;;;6.65;3.10;;;18.10;52.30;;;;;;5053260;28;20029;-74
2021/06/01 10:08:44;;;;;;;5.63;3.30;;;18.20;52.20;;;;;;5053011;28;20028;-81
2021/06/01 10:11:12;;;;;;;5.75;2.90;;;18.40;52.00;;;;;;5053536;28;20028;-83
2021/06/01 10:13:39;;;;;;;6.57;3.00;;;18.70;52.00;;;;;;5053037;28;20407;-81
2021/06/01 10:16:11;;;;;;;6.18;2.90;;;18.90;51.80;;;;;;5052958;28;20032;-82
2021/06/01 10:18:40;;;;;;;5.55;2.85;;;19.10;51.30;;;;;;5053595;28;20060;-80
2021/06/01 10:21:12;;;;;;;4.22;3.10;;;19.30;51.10;;;;;;5053062;28;20029;-82
2021/06/01 10:23:40;;;;;;;10.82;3.28;;;19.40;50.70;;;;;;5053137;28;20021;-81
2021/06/01 10:26:09;;;;;;;9.75;2.90;;;19.60;50.40;;;;;;5056196;28;20108;-81
2021/06/01 10:28:42;;;;;;;6.97;2.88;;;19.70;50.10;;;;;;5057060;28;20025;-82
2021/06/01 10:31:09;;;;;;;5.85;2.80;;;19.70;50.00;;;;;;5056939;28;20024;-80
2021/06/01 10:33:59;;;;;;;5.35;3.17;;;19.70;49.60;;;;;;5057094;28;20025;-81
2021/06/01 10:48:42;;;;;;;3.85;2.65;;;20.40;48.80;;;;;;5056162;28;20040;-82
2021/06/01 10:50:39;;;;;;;4.97;2.88;;;20.70;48.20;;;;;;5056426;28;20498;-81
2021/06/01 10:56:03;;;;;;;3.70;2.30;;;20.80;48.10;;;;;;5080791;28;20487;-79
2021/06/01 10:58:36;;;;;;;6.63;2.80;;;21.10;47.80;;;;;;5076495;28;20035;-82
2021/06/01 11:04:26;;;;;;;9.98;2.70;;;21.80;46.60;;;;;;5076006;28;20087;-81
2021/06/01 11:09:36;;;;;;;5.28;2.92;;;22.10;46.10;;;;;;5076142;28;20486;-82
2021/06/01 11:12:08;;;;;;;3.08;2.63;;;22.00;45.70;;;;;;5075943;28;20029;-75
2021/06/01 11:14:33;;;;;;;4.25;2.35;;;21.80;45.70;;;;;;5075903;28;20103;-75
2021/06/01 11:17:01;;;;;;;5.15;3.05;;;21.50;45.90;;;;;;5075263;28;20450;-75
2021/06/01 11:19:46;;;;;;;3.78;3.00;;;21.30;46.30;;;;;;5075781;28;20111;-75
2021/06/01 11:22:23;;;;;;;4.93;3.53;;;21.00;46.50;;;;;;5075648;28;20032;-75
2021/06/01 11:33:35;;;;;;;14.07;3.45;;;20.00;47.70;;;;;;5075521;28;20039;-75
2021/06/01 11:36:08;;;;;;;6.75;3.00;;;19.80;47.90;;;;;;5074808;28;20029;-76
2021/06/01 11:38:40;;;;;;;13.50;3.30;;;19.60;48.00;;;;;;5075013;28;20059;-76
2021/06/01 11:43:49;;;;;;;12.25;2.83;;;19.40;48.40;;;;;;5075077;28;20033;-74
2021/06/01 11:46:29;;;;;;;5.40;2.47;;;19.30;48.70;;;;;;5075027;28;20028;-75
2021/06/01 11:51:25;;;;;;;6.30;2.58;;;19.30;48.60;;;;;;5061304;28;20650;-75
2021/06/01 11:53:57;;;;;;;7.00;2.58;;;19.20;48.60;;;;;;5062556;28;20058;-75
2021/06/01 12:02:03;;;;;;;5.72;2.78;;;19.00;49.00;;;;;;5061831;28;20063;-75
2021/06/01 12:18:23;;;;;;;7.57;3.10;;;18.70;50.10;;;;;;5054350;28;19959;-75
2021/06/01 12:20:50;;;;;;;4.10;3.28;;;18.80;50.10;;;;;;5054175;28;20029;-75
2021/06/01 12:23:26;;;;;;;4.57;3.25;;;18.80;50.20;;;;;;5054155;28;20048;-74
2021/06/01 12:26:06;;;;;;;8.90;3.17;;;18.80;50.10;;;;;;5056662;28;20031;-76
2021/06/01 12:31:20;;;;;;;6.47;3.00;;;18.90;50.30;;;;;;5062430;28;20151;-76
2021/06/01 12:34:01;;;;;;;5.85;3.50;;;18.90;50.20;;;;;;5061592;28;20433;-75
2021/06/01 12:42:24;;;;;;;3.97;3.20;;;19.00;49.10;;;;;;5062343;28;20483;-75
2021/06/01 12:44:51;;;;;;;5.22;3.25;;;19.20;49.00;;;;;;5063127;28;20467;-76
2021/06/01 13:05:28;;;;;;;7.93;3.30;;;19.20;48.80;;;;;;5058519;28;20075;-76
2021/06/01 13:20:59;;;;;;;10.02;3.55;;;19.10;49.30;;;;;;5063666;28;20141;-75
2021/06/01 13:40:08;;;;;;;4.95;3.50;;;18.70;49.50;;;;;;5072900;28;20395;-74
2021/06/01 13:48:18;;;;;;;9.07;4.03;;;18.60;49.90;;;;;;5062359;28;20492;-75
2021/06/01 13:50:57;;;;;;;20.92;4.30;;;18.50;49.80;;;;;;5060160;28;20041;-75
2021/06/01 13:56:01;;;;;;;9.18;3.67;;;18.40;49.90;;;;;;5061132;28;20071;-75
2021/06/01 14:09:38;;;;;;;;;;;18.30;49.80;;;;;;5077691;28;20379;-76
2021/06/01 14:37:14;;;;;;;5.50;2.85;;;17.70;50.90;;;;;;5065576;28;20039;-78
2021/06/01 15:31:25;;;;;;;11.05;3.17;;;17.00;52.40;;;;;;5043616;28;20335;-76
2021/06/01 16:29:36;;;;;;;6.03;4.75;;;16.10;54.10;;;;;;5062993;28;20134;-75
2021/06/01 17:11:17;;;;;;;9.23;5.32;;;15.60;56.50;;;;;;5072667;28;20052;-75
2021/06/01 17:13:55;;;;;;;8.30;4.30;;;15.60;56.70;;;;;;5053517;28;20029;-76
2021/06/01 17:16:49;;;;;;;6.75;3.95;;;15.60;56.80;;;;;;5052698;28;20389;-74
2021/06/01 17:22:25;;;;;;;8.73;4.40;;;15.50;56.70;;;;;;5063423;28;20105;-76
2021/06/01 17:30:58;;;;;;;6.93;3.85;;;15.50;57.00;;;;;;5050798;28;20048;-75
2021/06/01 17:36:10;;;;;;;3.90;3.50;;;15.40;57.10;;;;;;5071929;28;20043;-76
2021/06/01 17:38:36;;;;;;;5.55;3.40;;;15.30;57.00;;;;;;5078133;28;20089;-75
2021/06/01 17:41:05;;;;;;;7.20;3.70;;;15.30;57.00;;;;;;5064246;28;20029;-74
2021/06/01 17:43:35;;;;;;;4.82;3.40;;;15.30;57.10;;;;;;5063445;28;20028;-75
2021/06/01 17:46:06;;;;;;;5.15;3.60;;;15.30;57.20;;;;;;5061977;28;20046;-76
2021/06/01 17:48:38;;;;;;;5.25;3.30;;;15.30;57.30;;;;;;5061727;28;20084;-76
2021/06/01 17:51:08;;;;;;;5.68;3.28;;;15.30;57.20;;;;;;5066754;28;20037;-75
2021/06/01 17:53:48;;;;;;;5.03;3.60;;;15.30;57.20;;;;;;5063639;28;20031;-74
2021/06/01 17:56:22;;;;;;;9.18;3.78;;;15.30;57.40;;;;;;5069248;28;20055;-75
2021/06/01 17:58:49;;;;;;;5.28;2.90;;;15.30;57.50;;;;;;5082261;28;20028;-75
2021/06/01 18:01:21;;;;;;;3.90;2.72;;;15.30;57.60;;;;;;5093656;28;20077;-75
2021/06/01 18:03:58;;;;;;;3.33;2.80;;;15.30;58.20;;;;;;5096289;28;20029;-76
2021/06/01 18:06:38;;;;;;;5.78;2.75;;;15.20;57.50;;;;;;5066161;28;20051;-75
2021/06/01 19:29:54;;;;;;;3.25;2.42;;;15.00;58.90;;;;;;5062685;28;20023;-75
2021/06/01 19:52:09;;;;;;;3.67;3.00;;;14.70;60.80;;;;;;5062355;28;20438;-76
2021/06/01 19:54:35;;;;;;;4.20;3.50;;;14.70;61.10;;;;;;5064196;28;20491;-76
2021/06/01 19:57:01;;;;;;;4.07;3.60;;;14.60;61.50;;;;;;5063899;28;20064;-75
2021/06/01 19:59:28;;;;;;;6.38;3.60;;;14.50;61.90;;;;;;5062388;28;20363;-76
2021/06/01 20:01:54;;;;;;;3.60;3.30;;;14.50;62.40;;;;;;5064215;28;20099;-75
2021/06/01 20:04:21;;;;;;;6.55;3.53;;;14.40;62.90;;;;;;5063548;28;20029;-74
2021/06/01 20:06:48;;;;;;;5.85;3.55;;;14.40;63.30;;;;;;5062244;28;20547;-75
2021/06/01 20:09:18;;;;;;;6.00;3.47;;;14.30;64.20;;;;;;5064026;28;20115;-75
2021/06/01 20:11:45;;;;;;;5.97;3.80;;;14.30;63.90;;;;;;5063850;28;20413;-75